createdAt,value
2017-12-05T00:00:47.696Z,18.93
2017-12-05T00:03:15.805Z,19.00
2017-12-05T00:05:44.127Z,19.63
2017-12-05T00:08:12.482Z,22.00
2017-12-05T00:10:40.927Z,17.90
2017-12-05T00:13:09.362Z,19.23
2017-12-05T00:15:37.750Z,18.40
2017-12-05T00:18:06.108Z,18.87
2017-12-05T00:20:34.470Z,19.60
2017-12-05T00:23:02.809Z,16.60
2017-12-05T00:25:31.194Z,19.33
2017-12-05T00:28:00.311Z,19.17
2017-12-05T00:30:28.679Z,19.90
2017-12-05T00:32:57.020Z,20.90
2017-12-05T00:35:25.377Z,18.77
2017-12-05T00:37:53.717Z,19.00
2017-12-05T00:40:22.835Z,20.10
2017-12-05T00:42:51.176Z,21.33
2017-12-05T00:45:20.333Z,20.30
2017-12-05T00:47:48.644Z,19.90
2017-12-05T00:50:17.794Z,20.37
2017-12-05T00:52:46.116Z,20.90
2017-12-05T00:55:14.494Z,19.87
2017-12-05T00:57:43.610Z,21.73
2017-12-05T01:00:12.722Z,21.03
2017-12-05T01:02:41.060Z,20.00
2017-12-05T01:05:09.403Z,19.93
2017-12-05T01:07:37.787Z,21.03
2017-12-05T01:10:06.141Z,22.83
2017-12-05T01:12:34.487Z,20.10
2017-12-05T01:15:02.833Z,21.67
2017-12-05T01:17:31.167Z,19.20
2017-12-05T01:20:00.314Z,20.03
2017-12-05T01:22:28.633Z,21.10
2017-12-05T01:24:57.006Z,18.83
2017-12-05T01:27:25.344Z,20.43
2017-12-05T01:29:53.670Z,20.07
2017-12-05T01:32:22.804Z,19.47
2017-12-05T01:34:51.126Z,19.77
2017-12-05T01:37:19.539Z,19.20
2017-12-05T01:39:48.643Z,18.50
2017-12-05T01:42:17.049Z,18.13
2017-12-05T01:44:45.364Z,20.03
2017-12-05T01:47:13.719Z,18.80
2017-12-05T01:49:42.055Z,18.93
2017-12-05T01:52:11.653Z,19.53
2017-12-05T01:54:40.738Z,19.07
2017-12-05T01:57:09.106Z,19.00
2017-12-05T01:59:37.437Z,20.00
2017-12-05T02:02:05.822Z,20.30
2017-12-05T02:04:34.165Z,20.00
2017-12-05T02:07:02.556Z,19.83
2017-12-05T02:09:30.895Z,19.60
2017-12-05T02:11:59.259Z,20.00
2017-12-05T02:14:27.589Z,19.17
2017-12-05T02:16:55.972Z,20.60
2017-12-05T02:19:24.315Z,20.27
2017-12-05T02:21:52.666Z,19.30
2017-12-05T02:24:21.037Z,19.97
2017-12-05T02:26:49.419Z,19.23
2017-12-05T02:29:17.767Z,19.57
2017-12-05T02:31:46.098Z,18.27
2017-12-05T02:34:14.470Z,22.13
2017-12-05T02:36:42.795Z,19.03
2017-12-05T02:39:11.910Z,19.07
2017-12-05T02:41:40.244Z,19.87
2017-12-05T02:44:08.624Z,21.33
2017-12-05T02:46:37.031Z,20.37
2017-12-05T02:49:05.399Z,19.57
2017-12-05T02:51:33.747Z,20.37
2017-12-05T02:54:02.137Z,19.03
2017-12-05T02:56:30.458Z,20.87
2017-12-05T02:58:58.801Z,20.77
2017-12-05T03:01:27.187Z,21.00
2017-12-05T03:03:56.315Z,21.17
2017-12-05T03:06:24.681Z,22.57
2017-12-05T03:08:53.028Z,21.43
2017-12-05T03:11:21.396Z,19.30
2017-12-05T03:13:49.747Z,20.70
2017-12-05T03:16:18.217Z,19.93
2017-12-05T03:18:46.602Z,22.10
2017-12-05T03:21:14.983Z,21.80
2017-12-05T03:23:43.362Z,21.97
2017-12-05T03:26:11.792Z,20.43
2017-12-05T03:28:40.178Z,21.40
2017-12-05T03:31:08.494Z,20.80
2017-12-05T03:33:36.831Z,21.00
2017-12-05T03:36:05.174Z,22.20
2017-12-05T03:38:33.523Z,21.03
2017-12-05T03:41:01.855Z,21.23
2017-12-05T03:43:30.211Z,22.50
2017-12-05T03:45:58.533Z,21.30
2017-12-05T03:48:26.886Z,21.33
2017-12-05T03:50:55.205Z,22.60
2017-12-05T03:53:24.326Z,22.63
2017-12-05T03:55:52.687Z,22.30
2017-12-05T03:58:21.862Z,20.80
2017-12-05T04:00:50.283Z,21.13
2017-12-05T04:03:18.642Z,24.07
2017-12-05T04:05:47.737Z,21.23
2017-12-05T04:08:16.873Z,22.17
2017-12-05T04:10:45.207Z,23.07
2017-12-05T04:13:13.532Z,21.00
2017-12-05T04:15:41.881Z,21.47
2017-12-05T04:18:10.973Z,23.80
2017-12-05T04:20:40.137Z,20.43
2017-12-05T04:23:08.468Z,20.80
2017-12-05T04:25:36.853Z,20.47
2017-12-05T04:28:05.208Z,20.80
2017-12-05T04:30:34.340Z,22.43
2017-12-05T04:33:02.652Z,22.63
2017-12-05T04:35:31.038Z,23.70
2017-12-05T04:37:59.408Z,24.37
2017-12-05T04:40:27.761Z,23.80
2017-12-05T04:42:56.089Z,25.17
2017-12-05T04:45:24.453Z,24.13
2017-12-05T04:47:52.809Z,21.43
2017-12-05T04:50:21.155Z,24.63
2017-12-05T04:52:49.507Z,23.70
2017-12-05T04:55:18.630Z,21.90
2017-12-05T04:57:46.987Z,24.40
2017-12-05T05:00:16.081Z,23.57
2017-12-05T05:02:45.225Z,22.67
2017-12-05T05:05:13.562Z,22.13
2017-12-05T05:07:42.678Z,22.53
2017-12-05T05:10:10.989Z,23.27
2017-12-05T05:12:39.370Z,25.30
2017-12-05T05:15:07.716Z,22.60
2017-12-05T05:17:36.077Z,25.27
2017-12-05T05:20:05.256Z,25.50
2017-12-05T05:22:33.618Z,28.17
2017-12-05T05:25:02.737Z,25.87
2017-12-05T05:27:31.090Z,34.50
2017-12-05T05:29:59.428Z,26.53
2017-12-05T05:32:27.778Z,21.20
2017-12-05T05:34:56.891Z,23.63
2017-12-05T05:37:26.010Z,24.43
2017-12-05T05:39:54.354Z,22.90
2017-12-05T05:42:22.739Z,23.50
2017-12-05T05:44:51.838Z,23.73
2017-12-05T05:47:20.952Z,25.40
2017-12-05T05:49:49.285Z,24.03
2017-12-05T05:52:17.725Z,23.37
2017-12-05T05:54:46.075Z,22.87
2017-12-05T05:57:15.244Z,23.67
2017-12-05T05:59:43.582Z,23.57
2017-12-05T06:02:12.049Z,22.77
2017-12-05T06:04:40.421Z,23.90
2017-12-05T06:07:08.766Z,22.57
2017-12-05T06:09:37.130Z,22.30
2017-12-05T06:12:06.409Z,21.23
2017-12-05T06:14:34.757Z,20.50
2017-12-05T06:17:03.856Z,22.07
2017-12-05T06:19:32.962Z,20.53
2017-12-05T06:22:01.379Z,21.63
2017-12-05T06:24:29.733Z,24.07
2017-12-05T06:26:58.069Z,21.93
2017-12-05T06:29:26.429Z,20.53
2017-12-05T06:31:54.765Z,22.80
2017-12-05T06:34:23.115Z,23.63
2017-12-05T06:36:52.206Z,19.87
2017-12-05T06:39:20.554Z,20.37
2017-12-05T06:41:48.893Z,21.03
2017-12-05T06:44:17.294Z,20.93
2017-12-05T06:46:45.637Z,22.60
2017-12-05T06:49:14.742Z,21.03
2017-12-05T06:51:43.096Z,19.70
2017-12-05T06:54:12.209Z,21.70
2017-12-05T06:56:40.570Z,23.00
2017-12-05T06:59:09.675Z,19.90
2017-12-05T07:01:38.810Z,19.80
2017-12-05T07:04:07.186Z,21.63
2017-12-05T07:06:35.582Z,19.10
2017-12-05T07:09:03.934Z,22.30
2017-12-05T07:11:32.307Z,42.67
2017-12-05T07:14:00.654Z,51.47
2017-12-05T07:16:29.781Z,21.57
2017-12-05T07:18:58.125Z,21.83
2017-12-05T07:21:26.492Z,19.87
2017-12-05T07:23:54.845Z,19.50
2017-12-05T07:26:23.200Z,17.53
2017-12-05T07:28:51.541Z,23.10
2017-12-05T07:31:19.910Z,23.20
2017-12-05T07:33:48.345Z,29.30
2017-12-05T07:36:16.702Z,23.07
2017-12-05T07:38:45.812Z,20.20
2017-12-05T07:41:14.148Z,19.43
2017-12-05T07:43:42.526Z,16.57
2017-12-05T07:46:10.864Z,18.20
2017-12-05T07:48:39.222Z,16.70
2017-12-05T07:51:07.555Z,19.60
2017-12-05T07:53:35.938Z,17.33
2017-12-05T07:56:04.270Z,15.77
2017-12-05T07:58:33.387Z,17.00
2017-12-05T08:01:01.740Z,16.53
2017-12-05T08:03:30.118Z,14.87
2017-12-05T08:05:58.457Z,15.60
2017-12-05T08:08:26.819Z,14.37
2017-12-05T08:10:55.187Z,16.73
2017-12-05T08:13:23.553Z,13.50
2017-12-05T08:15:51.918Z,15.77
2017-12-05T08:18:21.016Z,16.13
2017-12-05T08:20:49.386Z,15.40
2017-12-05T08:23:17.764Z,15.37
2017-12-05T08:25:46.118Z,15.40
2017-12-05T08:28:15.247Z,15.70
2017-12-05T08:30:44.342Z,16.63
2017-12-05T08:33:12.716Z,16.23
2017-12-05T08:35:41.065Z,13.37
2017-12-05T08:38:09.420Z,14.40
2017-12-05T08:40:37.770Z,14.17
2017-12-05T08:43:06.116Z,13.97
2017-12-05T08:45:34.452Z,14.47
2017-12-05T08:48:02.813Z,14.70
2017-12-05T08:50:31.150Z,13.57
2017-12-05T08:53:00.286Z,13.03
2017-12-05T08:55:28.618Z,14.70
2017-12-05T08:57:56.987Z,14.50
2017-12-05T09:00:25.317Z,13.37
2017-12-05T09:02:53.687Z,14.10
2017-12-05T09:05:22.792Z,13.60
2017-12-05T09:07:51.330Z,14.13
2017-12-05T09:10:19.654Z,13.53
2017-12-05T09:12:48.006Z,13.50
2017-12-05T09:15:17.130Z,13.63
2017-12-05T09:17:45.494Z,14.30
2017-12-05T09:20:13.837Z,13.60
2017-12-05T09:22:42.189Z,13.60
2017-12-05T09:25:10.529Z,44.90
2017-12-05T09:27:39.653Z,21.97
2017-12-05T09:30:07.999Z,25.80
2017-12-05T09:32:37.143Z,15.63
2017-12-05T09:35:05.479Z,15.70
2017-12-05T09:37:34.578Z,15.47
2017-12-05T09:40:02.973Z,14.70
2017-12-05T09:42:31.338Z,12.93
2017-12-05T09:44:59.708Z,12.63
2017-12-05T09:47:28.863Z,14.10
2017-12-05T09:49:57.254Z,13.77
2017-12-05T09:52:25.594Z,11.60
2017-12-05T09:54:53.946Z,12.17
2017-12-05T09:57:23.061Z,11.53
2017-12-05T09:59:51.432Z,10.60
2017-12-05T10:02:19.870Z,11.47
2017-12-05T10:04:48.230Z,12.00
2017-12-05T10:07:16.589Z,14.90
2017-12-05T10:09:45.019Z,10.77
2017-12-05T10:12:13.381Z,10.00
2017-12-05T10:14:41.733Z,10.23
2017-12-05T10:17:10.079Z,9.90
2017-12-05T10:19:39.208Z,8.60
2017-12-05T10:22:07.535Z,8.83
2017-12-05T10:24:35.895Z,8.53
2017-12-05T10:27:04.230Z,9.13
2017-12-05T10:29:32.585Z,8.87
2017-12-05T10:32:01.689Z,7.03
2017-12-05T10:34:30.814Z,8.17
2017-12-05T10:36:59.149Z,8.20
2017-12-05T10:39:28.294Z,8.13
2017-12-05T10:41:56.632Z,8.17
2017-12-05T10:44:24.995Z,7.70
2017-12-05T10:46:53.353Z,8.77
2017-12-05T10:49:21.694Z,8.13
2017-12-05T10:51:50.885Z,9.03
2017-12-05T10:54:19.266Z,9.50
2017-12-05T10:56:47.650Z,8.57
2017-12-05T10:59:15.990Z,8.83
2017-12-05T11:01:44.339Z,8.57
2017-12-05T11:04:12.672Z,7.10
2017-12-05T11:06:41.001Z,7.77
2017-12-05T11:09:09.330Z,7.67
2017-12-05T11:11:37.679Z,9.03
2017-12-05T11:14:06.022Z,8.43
2017-12-05T11:16:34.351Z,7.70
2017-12-05T11:19:02.656Z,7.90
2017-12-05T11:21:31.753Z,8.50
2017-12-05T11:24:00.834Z,7.43
2017-12-05T11:26:29.180Z,7.27
2017-12-05T11:28:57.490Z,8.50
2017-12-05T11:31:25.836Z,16.37
2017-12-05T11:33:54.165Z,8.20
2017-12-05T11:36:23.236Z,8.13
2017-12-05T11:38:51.575Z,7.20
2017-12-05T11:41:19.897Z,7.10
2017-12-05T11:43:48.229Z,8.40
2017-12-05T11:46:16.540Z,6.83
2017-12-05T11:48:44.866Z,6.73
2017-12-05T11:51:13.186Z,8.83
2017-12-05T11:53:41.513Z,7.30
2017-12-05T11:56:10.597Z,7.27
2017-12-05T11:58:38.917Z,6.93
2017-12-05T12:01:07.224Z,6.63
2017-12-05T12:03:35.554Z,7.70
2017-12-05T12:06:04.618Z,7.47
2017-12-05T12:08:33.718Z,7.00
2017-12-05T12:11:02.019Z,7.10
2017-12-05T12:13:31.109Z,6.97
2017-12-05T12:16:00.176Z,7.00
2017-12-05T12:18:28.505Z,6.97
2017-12-05T12:20:56.813Z,7.07
2017-12-05T12:23:25.112Z,6.80
2017-12-05T12:25:53.434Z,6.87
2017-12-05T12:28:21.742Z,6.73
2017-12-05T12:30:50.069Z,6.97
2017-12-05T12:33:18.369Z,6.87
2017-12-05T12:35:46.689Z,6.97
2017-12-05T12:38:15.002Z,7.00
2017-12-05T12:40:43.345Z,7.67
2017-12-05T12:43:11.657Z,7.17
2017-12-05T12:45:40.756Z,6.90
2017-12-05T12:48:09.832Z,8.40
2017-12-05T12:50:38.173Z,7.80
2017-12-05T12:53:07.256Z,7.80
2017-12-05T12:55:35.600Z,6.57
2017-12-05T12:58:03.908Z,7.30
2017-12-05T13:00:32.215Z,7.60
2017-12-05T13:03:00.557Z,8.00
2017-12-05T13:05:29.642Z,7.77
2017-12-05T13:07:58.745Z,8.13
2017-12-05T13:10:27.829Z,8.13
2017-12-05T13:12:56.156Z,7.87
2017-12-05T13:15:24.470Z,8.10
2017-12-05T13:17:52.797Z,8.50
2017-12-05T13:20:21.109Z,7.27
2017-12-05T13:22:49.433Z,7.83
2017-12-05T13:25:18.509Z,7.13
2017-12-05T13:27:46.843Z,8.50
2017-12-05T13:30:15.154Z,8.10
2017-12-05T13:32:43.497Z,9.37
2017-12-05T13:35:11.811Z,18.50
2017-12-05T13:37:40.130Z,28.30
2017-12-05T13:40:08.474Z,25.73
2017-12-05T13:42:38.521Z,21.03
2017-12-05T13:45:07.612Z,9.33
2017-12-05T13:47:40.077Z,10.33
2017-12-05T13:50:08.425Z,8.50
2017-12-05T13:52:36.803Z,8.53
2017-12-05T13:55:05.124Z,9.80
2017-12-05T13:57:34.196Z,10.53
2017-12-05T14:00:02.518Z,8.10
2017-12-05T14:02:30.830Z,8.60
2017-12-05T14:04:59.163Z,10.43
2017-12-05T14:07:28.263Z,9.10
2017-12-05T14:09:56.626Z,9.30
2017-12-05T14:12:25.709Z,9.80
2017-12-05T14:14:54.031Z,9.33
2017-12-05T14:17:23.106Z,8.87
2017-12-05T14:19:52.202Z,9.40
2017-12-05T14:22:21.304Z,9.33
2017-12-05T14:24:49.630Z,10.10
2017-12-05T14:27:17.989Z,10.20
2017-12-05T14:29:46.320Z,7.97
2017-12-05T14:32:14.650Z,9.13
2017-12-05T14:34:42.970Z,10.07
2017-12-05T14:37:11.308Z,9.77
2017-12-05T14:39:39.629Z,10.37
2017-12-05T14:42:07.953Z,9.67
2017-12-05T14:44:36.304Z,12.40
2017-12-05T14:47:05.395Z,14.70
2017-12-05T14:49:34.472Z,10.40
2017-12-05T14:52:02.797Z,9.43
2017-12-05T14:54:31.144Z,10.63
2017-12-05T14:56:59.453Z,11.20
2017-12-05T14:59:27.807Z,11.00
2017-12-05T15:01:56.140Z,11.10
2017-12-05T15:04:24.473Z,11.30
2017-12-05T15:06:53.562Z,10.27
2017-12-05T15:09:23.844Z,12.13
2017-12-05T15:11:52.156Z,13.10
2017-12-05T15:14:20.495Z,12.40
2017-12-05T15:16:48.821Z,13.30
2017-12-05T15:19:17.186Z,10.87
2017-12-05T15:21:45.507Z,12.93
2017-12-05T15:24:13.849Z,14.33
2017-12-05T15:26:42.938Z,19.10
2017-12-05T15:29:12.056Z,17.50
2017-12-05T15:31:41.302Z,12.23
2017-12-05T15:34:09.659Z,12.40
2017-12-05T15:36:38.011Z,13.47
2017-12-05T15:39:07.113Z,11.27
2017-12-05T15:41:36.187Z,16.50
2017-12-05T15:44:04.495Z,10.10
2017-12-05T15:46:33.599Z,12.40
2017-12-05T15:49:01.930Z,10.47
2017-12-05T15:51:30.269Z,11.93
2017-12-05T15:53:58.609Z,12.70
2017-12-05T15:56:27.712Z,11.73
2017-12-05T15:58:56.797Z,12.10
2017-12-05T16:01:25.137Z,12.07
2017-12-05T16:03:53.473Z,11.90
2017-12-05T16:06:22.569Z,12.70
2017-12-05T16:08:51.648Z,11.57
2017-12-05T16:11:19.969Z,14.10
2017-12-05T16:13:48.329Z,12.90
2017-12-05T16:16:16.638Z,13.70
2017-12-05T16:18:44.986Z,18.20
2017-12-05T16:21:13.302Z,16.30
2017-12-05T16:23:41.756Z,14.30
2017-12-05T16:26:10.077Z,14.00
2017-12-05T16:28:38.424Z,14.90
2017-12-05T16:31:06.756Z,14.27
2017-12-05T16:33:35.094Z,14.67
2017-12-05T16:36:03.400Z,15.37
2017-12-05T16:38:31.733Z,15.33
2017-12-05T16:41:00.122Z,15.70
2017-12-05T16:43:28.442Z,15.27
2017-12-05T16:45:56.759Z,14.33
2017-12-05T16:48:25.102Z,15.93
2017-12-05T16:50:54.196Z,15.63
2017-12-05T16:53:22.542Z,16.57
2017-12-05T16:55:50.852Z,16.80
2017-12-05T16:58:19.189Z,16.43
2017-12-05T17:00:47.514Z,15.77
2017-12-05T17:03:16.665Z,14.73
2017-12-05T17:05:45.009Z,16.03
2017-12-05T17:08:14.101Z,15.43
2017-12-05T17:10:43.200Z,15.10
2017-12-05T17:13:11.530Z,15.83
2017-12-05T17:15:39.868Z,14.13
2017-12-05T17:18:08.193Z,13.90
2017-12-05T17:20:36.534Z,15.80
2017-12-05T17:23:04.856Z,15.80
2017-12-05T17:25:33.201Z,16.67
2017-12-05T17:28:01.529Z,14.70
2017-12-05T17:30:29.865Z,15.43
2017-12-05T17:32:58.182Z,14.63
2017-12-05T17:35:26.525Z,16.70
2017-12-05T17:37:54.845Z,16.80
2017-12-05T17:40:23.963Z,16.70
2017-12-05T17:42:53.044Z,15.50
2017-12-05T17:45:22.149Z,16.20
2017-12-05T17:47:51.229Z,17.30
2017-12-05T17:50:19.583Z,15.97
2017-12-05T17:52:47.897Z,16.43
2017-12-05T17:55:17.021Z,16.60
2017-12-05T17:57:45.328Z,17.23
2017-12-05T18:00:13.661Z,17.70
2017-12-05T18:02:42.005Z,16.43
2017-12-05T18:05:10.330Z,16.63
2017-12-05T18:07:38.708Z,15.60
2017-12-05T18:10:07.824Z,23.87
2017-12-05T18:12:36.168Z,19.03
2017-12-05T18:15:04.508Z,22.23
2017-12-05T18:17:32.856Z,19.73
2017-12-05T18:20:01.188Z,18.60
2017-12-05T18:22:30.310Z,21.33
2017-12-05T18:25:01.965Z,21.83
2017-12-05T18:27:30.309Z,19.13
2017-12-05T18:29:58.646Z,19.70
2017-12-05T18:32:26.999Z,18.50
2017-12-05T18:34:56.104Z,19.23
2017-12-05T18:37:24.457Z,19.63
2017-12-05T18:39:53.549Z,21.80
2017-12-05T18:42:21.922Z,19.67
2017-12-05T18:44:50.254Z,19.93
2017-12-05T18:47:18.613Z,19.70
2017-12-05T18:49:47.698Z,21.63
2017-12-05T18:52:16.810Z,18.27
2017-12-05T18:54:45.147Z,23.17
2017-12-05T18:57:13.498Z,17.60
2017-12-05T18:59:41.832Z,17.60
2017-12-05T19:02:10.974Z,17.97
2017-12-05T19:04:39.345Z,16.63
2017-12-05T19:07:07.681Z,18.47
2017-12-05T19:09:36.801Z,17.50
2017-12-05T19:12:05.885Z,18.37
2017-12-05T19:14:34.234Z,19.70
2017-12-05T19:17:02.560Z,20.10
2017-12-05T19:19:30.911Z,18.33
2017-12-05T19:22:00.010Z,17.57
2017-12-05T19:24:29.141Z,18.80
2017-12-05T19:26:57.474Z,17.13
2017-12-05T19:29:25.849Z,19.60
2017-12-05T19:31:54.185Z,18.87
2017-12-05T19:34:22.533Z,19.07
2017-12-05T19:36:50.861Z,25.00
2017-12-05T19:39:19.234Z,19.60
2017-12-05T19:41:47.565Z,22.67
2017-12-05T19:44:16.689Z,24.80
2017-12-05T19:46:45.025Z,27.37
2017-12-05T19:49:13.375Z,30.47
2017-12-05T19:51:41.717Z,21.10
2017-12-05T19:54:10.049Z,17.70
2017-12-05T19:56:38.401Z,18.27
2017-12-05T19:59:06.724Z,17.63
2017-12-05T20:01:35.847Z,16.83
2017-12-05T20:04:04.160Z,19.47
2017-12-05T20:06:32.517Z,17.30
2017-12-05T20:09:00.853Z,17.93
2017-12-05T20:11:29.976Z,16.90
2017-12-05T20:13:59.048Z,18.83
2017-12-05T20:16:27.395Z,17.90
2017-12-05T20:18:55.717Z,16.10
2017-12-05T20:21:24.850Z,16.50
2017-12-05T20:23:53.276Z,16.00
2017-12-05T20:26:21.684Z,16.47
2017-12-05T20:28:50.034Z,17.17
2017-12-05T20:31:18.387Z,15.10
2017-12-05T20:33:46.710Z,15.40
2017-12-05T20:36:15.830Z,15.50
2017-12-05T20:38:44.149Z,15.40
2017-12-05T20:41:12.504Z,15.20
2017-12-05T20:43:40.835Z,14.80
2017-12-05T20:46:09.958Z,15.00
2017-12-05T20:48:38.035Z,15.00
2017-12-05T20:51:06.161Z,15.60
2017-12-05T20:53:34.229Z,15.80
2017-12-05T20:56:02.305Z,16.17
2017-12-05T20:58:30.416Z,16.73
2017-12-05T21:00:58.498Z,17.50
2017-12-05T21:03:26.589Z,16.27
2017-12-05T21:05:55.436Z,15.93
2017-12-05T21:08:23.542Z,15.93
2017-12-05T21:10:51.609Z,17.00
2017-12-05T21:13:19.713Z,15.97
2017-12-05T21:15:48.548Z,15.60
2017-12-05T21:18:17.505Z,15.43
2017-12-05T21:20:46.337Z,15.87
2017-12-05T21:23:14.429Z,15.37
2017-12-05T21:25:42.517Z,14.70
2017-12-05T21:28:10.610Z,15.10
2017-12-05T21:30:39.456Z,15.20
2017-12-05T21:33:07.602Z,14.77
2017-12-05T21:35:35.678Z,13.83
2017-12-05T21:38:03.768Z,16.70
2017-12-05T21:40:31.851Z,14.30
2017-12-05T21:42:59.943Z,15.50
2017-12-05T21:45:28.017Z,13.53
2017-12-05T21:47:56.106Z,14.20
2017-12-05T21:50:24.942Z,14.57
2017-12-05T21:52:53.053Z,14.23
2017-12-05T21:55:21.127Z,14.00
2017-12-05T21:57:49.188Z,13.33
2017-12-05T22:00:17.280Z,15.87
2017-12-05T22:02:46.116Z,12.87
2017-12-05T22:05:14.211Z,14.00
2017-12-05T22:07:42.303Z,16.20
2017-12-05T22:10:10.645Z,14.30
2017-12-05T22:12:38.961Z,15.40
2017-12-05T22:15:07.314Z,14.37
2017-12-05T22:17:36.385Z,13.67
2017-12-05T22:20:04.750Z,14.10
2017-12-05T22:22:33.082Z,14.90
2017-12-05T22:25:01.386Z,14.20
2017-12-05T22:27:29.725Z,13.97
2017-12-05T22:29:58.804Z,15.47
2017-12-05T22:32:27.133Z,14.30
2017-12-05T22:34:55.453Z,14.77
2017-12-05T22:37:23.780Z,14.63
2017-12-05T22:39:52.105Z,14.77
2017-12-05T22:42:20.468Z,14.87
2017-12-05T22:44:48.777Z,14.93
2017-12-05T22:47:17.109Z,14.37
2017-12-05T22:49:45.424Z,14.90
2017-12-05T22:52:13.765Z,13.70
2017-12-05T22:54:42.078Z,14.50
2017-12-05T22:57:10.405Z,14.27
2017-12-05T22:59:38.717Z,13.30
2017-12-05T23:02:07.044Z,14.03
2017-12-05T23:04:36.130Z,14.30
2017-12-05T23:07:04.469Z,16.17
2017-12-05T23:09:32.793Z,14.70
2017-12-05T23:12:01.900Z,14.53
2017-12-05T23:14:30.985Z,15.97
2017-12-05T23:17:00.089Z,14.93
2017-12-05T23:19:28.417Z,14.90
2017-12-05T23:21:56.738Z,14.10
2017-12-05T23:24:25.069Z,14.00
2017-12-05T23:26:53.388Z,14.30
2017-12-05T23:29:21.725Z,13.87
2017-12-05T23:31:50.037Z,13.40
2017-12-05T23:34:18.378Z,12.60
2017-12-05T23:36:46.692Z,14.80
2017-12-05T23:39:15.024Z,14.70
2017-12-05T23:41:43.340Z,12.60
2017-12-05T23:44:11.676Z,13.17
2017-12-05T23:46:40.000Z,13.50
2017-12-05T23:49:08.357Z,13.10
2017-12-05T23:51:36.672Z,14.80
2017-12-05T23:54:04.999Z,14.37
2017-12-05T23:56:33.345Z,14.20
2017-12-05T23:59:02.428Z,14.47
